createdAt,value
2016-12-16T00:00:37.970Z,20.64
2016-12-16T00:01:46.955Z,20.61
2016-12-16T00:02:55.983Z,20.59
2016-12-16T00:04:05.594Z,20.57
2016-12-16T00:05:14.908Z,20.58
2016-12-16T00:06:24.240Z,20.61
2016-12-16T00:07:33.262Z,20.55
2016-12-16T00:08:42.273Z,20.57
2016-12-16T00:09:51.587Z,20.57
2016-12-16T00:11:00.379Z,20.52
2016-12-16T00:12:09.686Z,20.48
2016-12-16T00:13:18.396Z,20.52
2016-12-16T00:14:27.091Z,20.43
2016-12-16T00:15:36.382Z,20.58
2016-12-16T00:16:46.017Z,20.54
2016-12-16T00:17:55.636Z,20.42
2016-12-16T00:19:04.738Z,20.51
2016-12-16T00:20:13.428Z,20.51
2016-12-16T00:21:22.119Z,20.55
2016-12-16T00:22:31.327Z,20.54
2016-12-16T00:23:40.322Z,20.41
2016-12-16T00:24:49.097Z,20.51
2016-12-16T00:25:58.088Z,20.51
2016-12-16T00:27:08.014Z,20.58
2016-12-16T00:28:17.961Z,20.42
2016-12-16T00:29:26.643Z,20.54
2016-12-16T00:30:35.704Z,20.58
2016-12-16T00:31:44.702Z,20.54
2016-12-16T00:32:54.027Z,20.5
2016-12-16T00:34:03.025Z,20.48
2016-12-16T00:35:12.327Z,20.47
2016-12-16T00:36:22.530Z,20.39
2016-12-16T00:37:31.529Z,20.51
2016-12-16T00:38:40.542Z,20.48
2016-12-16T00:39:49.726Z,20.54
2016-12-16T00:40:58.718Z,20.38
2016-12-16T00:42:08.428Z,20.52
2016-12-16T00:43:17.137Z,20.5
2016-12-16T00:44:25.821Z,20.54
2016-12-16T00:45:35.473Z,20.52
2016-12-16T00:46:44.179Z,20.41
2016-12-16T00:47:52.876Z,20.5
2016-12-16T00:49:02.490Z,20.47
2016-12-16T00:50:11.784Z,20.47
2016-12-16T00:51:20.897Z,20.39
2016-12-16T00:52:29.902Z,20.43
2016-12-16T00:53:39.207Z,20.47
2016-12-16T00:54:48.198Z,20.41
2016-12-16T00:55:56.906Z,20.47
2016-12-16T00:57:06.224Z,20.43
2016-12-16T00:58:15.212Z,20.5
2016-12-16T00:59:24.505Z,20.5
2016-12-16T01:00:33.797Z,20.48
2016-12-16T01:01:43.390Z,20.54
2016-12-16T01:02:52.791Z,20.48
2016-12-16T01:04:02.416Z,20.54
2016-12-16T01:05:11.401Z,20.5
2016-12-16T01:06:20.078Z,20.48
2016-12-16T01:07:28.757Z,20.57
2016-12-16T01:08:37.602Z,20.51
2016-12-16T01:09:46.594Z,20.5
2016-12-16T01:10:55.887Z,20.51
2016-12-16T01:12:04.901Z,20.5
2016-12-16T01:13:13.934Z,20.47
2016-12-16T01:14:22.990Z,20.43
2016-12-16T01:15:31.980Z,20.42
2016-12-16T01:16:40.980Z,20.48
2016-12-16T01:17:49.671Z,20.41
2016-12-16T01:18:58.973Z,20.51
2016-12-16T01:20:07.659Z,20.41
2016-12-16T01:21:16.685Z,20.39
2016-12-16T01:22:26.281Z,20.41
2016-12-16T01:23:35.937Z,20.48
2016-12-16T01:24:44.930Z,20.42
2016-12-16T01:25:54.010Z,20.43
2016-12-16T01:27:03.004Z,20.41
2016-12-16T01:28:12.331Z,20.39
2016-12-16T01:29:21.031Z,20.5
2016-12-16T01:30:30.025Z,20.48
2016-12-16T01:31:39.018Z,20.43
2016-12-16T01:32:48.010Z,20.39
2016-12-16T01:33:57.313Z,20.39
2016-12-16T01:35:06.619Z,20.39
2016-12-16T01:36:15.934Z,20.41
2016-12-16T01:37:25.868Z,20.47
2016-12-16T01:38:34.874Z,20.41
2016-12-16T01:39:44.206Z,20.42
2016-12-16T01:40:52.880Z,20.38
2016-12-16T01:42:02.173Z,20.42
2016-12-16T01:43:11.162Z,20.38
2016-12-16T01:44:20.161Z,20.41
2016-12-16T01:45:29.793Z,20.47
2016-12-16T01:46:39.100Z,20.42
2016-12-16T01:47:48.102Z,20.36
2016-12-16T01:48:56.954Z,20.38
2016-12-16T01:50:05.939Z,20.36
2016-12-16T01:51:14.655Z,20.36
2016-12-16T01:52:23.638Z,20.41
2016-12-16T01:53:32.632Z,20.41
2016-12-16T01:54:41.346Z,20.39
2016-12-16T01:55:50.345Z,20.42
2016-12-16T01:56:59.316Z,20.33
2016-12-16T01:58:08.916Z,20.38
2016-12-16T01:59:18.215Z,20.41
2016-12-16T02:00:27.252Z,20.42
2016-12-16T02:01:36.294Z,20.36
2016-12-16T02:02:44.973Z,20.38
2016-12-16T02:03:53.694Z,20.35
2016-12-16T02:05:02.696Z,20.39
2016-12-16T02:06:11.816Z,20.38
2016-12-16T02:07:20.813Z,20.38
2016-12-16T02:08:30.167Z,20.38
2016-12-16T02:09:39.170Z,20.41
2016-12-16T02:10:48.159Z,20.39
2016-12-16T02:11:57.511Z,20.47
2016-12-16T02:13:06.515Z,20.32
2016-12-16T02:14:16.428Z,20.36
2016-12-16T02:15:25.744Z,20.35
2016-12-16T02:16:35.041Z,20.35
2016-12-16T02:17:45.006Z,20.38
2016-12-16T02:18:53.702Z,20.41
2016-12-16T02:20:02.697Z,20.28
2016-12-16T02:21:11.990Z,20.36
2016-12-16T02:22:20.695Z,20.28
2016-12-16T02:23:30.140Z,20.35
2016-12-16T02:24:38.821Z,20.38
2016-12-16T02:25:48.105Z,20.38
2016-12-16T02:26:56.790Z,20.35
2016-12-16T02:28:05.483Z,20.31
2016-12-16T02:29:14.566Z,20.41
2016-12-16T02:30:23.862Z,20.38
2016-12-16T02:31:32.854Z,20.36
2016-12-16T02:32:41.533Z,20.41
2016-12-16T02:33:50.514Z,20.41
2016-12-16T02:34:59.220Z,20.29
2016-12-16T02:36:08.530Z,20.35
2016-12-16T02:37:17.220Z,20.36
2016-12-16T02:38:26.533Z,20.35
2016-12-16T02:39:35.213Z,20.38
2016-12-16T02:40:44.500Z,20.36
2016-12-16T02:41:54.100Z,20.38
2016-12-16T02:43:03.385Z,20.33
2016-12-16T02:44:12.066Z,20.38
2016-12-16T02:45:20.745Z,20.35
2016-12-16T02:46:30.134Z,20.38
2016-12-16T02:47:38.813Z,20.33
2016-12-16T02:48:47.796Z,20.39
2016-12-16T02:49:56.778Z,20.42
2016-12-16T02:51:05.465Z,20.39
2016-12-16T02:52:14.290Z,20.39
2016-12-16T02:53:23.591Z,20.38
2016-12-16T02:54:32.576Z,20.36
2016-12-16T02:55:41.559Z,20.28
2016-12-16T02:56:50.248Z,20.39
2016-12-16T02:57:59.339Z,20.39
2016-12-16T02:59:08.939Z,20.31
2016-12-16T03:00:17.668Z,20.31
2016-12-16T03:01:26.348Z,20.39
2016-12-16T03:02:35.019Z,20.41
2016-12-16T03:03:44.012Z,20.36
2016-12-16T03:04:52.713Z,20.35
2016-12-16T03:06:01.407Z,20.39
2016-12-16T03:07:10.099Z,20.32
2016-12-16T03:08:19.137Z,20.33
2016-12-16T03:09:28.117Z,20.39
2016-12-16T03:10:36.866Z,20.41
2016-12-16T03:11:45.859Z,20.24
2016-12-16T03:12:54.863Z,20.32
2016-12-16T03:14:03.867Z,20.33
2016-12-16T03:15:12.889Z,20.28
2016-12-16T03:16:21.934Z,20.31
2016-12-16T03:17:30.918Z,20.32
2016-12-16T03:18:40.212Z,20.35
2016-12-16T03:19:48.922Z,20.31
2016-12-16T03:20:58.231Z,20.28
2016-12-16T03:22:07.229Z,20.32
2016-12-16T03:23:16.523Z,20.32
2016-12-16T03:24:25.509Z,20.32
2016-12-16T03:25:34.489Z,20.32
2016-12-16T03:26:43.190Z,20.36
2016-12-16T03:27:51.877Z,20.29
2016-12-16T03:29:00.862Z,20.33
2016-12-16T03:30:09.868Z,20.29
2016-12-16T03:31:19.463Z,20.33
2016-12-16T03:32:28.809Z,20.28
2016-12-16T03:33:37.802Z,20.33
2016-12-16T03:34:46.791Z,20.36
2016-12-16T03:35:55.472Z,20.29
2016-12-16T03:37:04.772Z,20.28
2016-12-16T03:38:13.456Z,20.33
2016-12-16T03:39:22.435Z,20.24
2016-12-16T03:40:31.117Z,20.28
2016-12-16T03:41:40.126Z,20.29
2016-12-16T03:42:48.813Z,20.23
2016-12-16T03:43:57.646Z,20.23
2016-12-16T03:45:06.930Z,20.28
2016-12-16T03:46:16.222Z,20.31
2016-12-16T03:47:25.520Z,20.29
2016-12-16T03:48:34.804Z,20.29
2016-12-16T03:49:44.107Z,20.24
2016-12-16T03:50:53.084Z,20.17
2016-12-16T03:52:02.694Z,20.28
2016-12-16T03:53:11.997Z,20.17
2016-12-16T03:54:21.300Z,20.17
2016-12-16T03:55:30.929Z,20.16
2016-12-16T03:56:39.945Z,20.18
2016-12-16T03:57:49.237Z,20.32
2016-12-16T03:58:57.917Z,20.28
2016-12-16T04:00:06.596Z,20.17
2016-12-16T04:01:15.878Z,20.18
2016-12-16T04:02:24.562Z,20.17
2016-12-16T04:03:33.858Z,20.2
2016-12-16T04:04:42.847Z,20.21
2016-12-16T04:05:51.843Z,20.17
2016-12-16T04:07:00.831Z,20.24
2016-12-16T04:08:09.845Z,20.21
2016-12-16T04:09:18.831Z,20.14
2016-12-16T04:10:27.535Z,20.21
2016-12-16T04:11:36.832Z,20.17
2016-12-16T04:12:46.427Z,20.2
2016-12-16T04:13:55.429Z,20.2
2016-12-16T04:15:04.419Z,20.2
2016-12-16T04:16:13.433Z,20.32
2016-12-16T04:17:22.750Z,20.24
2016-12-16T04:18:32.395Z,20.23
2016-12-16T04:19:41.380Z,20.18
2016-12-16T04:20:50.360Z,20.17
2016-12-16T04:21:59.346Z,20.14
2016-12-16T04:23:08.348Z,20.18
2016-12-16T04:24:17.375Z,20.17
2016-12-16T04:25:26.371Z,20.17
2016-12-16T04:26:35.376Z,20.16
2016-12-16T04:27:44.381Z,20.28
2016-12-16T04:28:53.698Z,20.2
2016-12-16T04:30:02.736Z,20.2
2016-12-16T04:31:11.421Z,20.18
2016-12-16T04:32:20.421Z,20.21
2016-12-16T04:33:30.022Z,20.24
2016-12-16T04:34:38.717Z,20.24
2016-12-16T04:35:48.160Z,20.18
2016-12-16T04:36:57.155Z,20.18
2016-12-16T04:38:06.464Z,20.24
2016-12-16T04:39:15.772Z,20.17
2016-12-16T04:40:25.074Z,20.21
2016-12-16T04:41:34.509Z,20.21
2016-12-16T04:42:43.827Z,20.17
2016-12-16T04:43:52.825Z,20.16
2016-12-16T04:45:02.734Z,20.18
2016-12-16T04:46:12.030Z,20.18
2016-12-16T04:47:21.055Z,20.2
2016-12-16T04:48:29.727Z,20.2
2016-12-16T04:49:38.712Z,20.23
2016-12-16T04:50:47.386Z,20.24
2016-12-16T04:51:56.058Z,20.21
2016-12-16T04:53:05.356Z,20.13
2016-12-16T04:54:14.335Z,20.18
2016-12-16T04:55:23.334Z,20.11
2016-12-16T04:56:32.627Z,20.1
2016-12-16T04:57:41.306Z,20.05
2016-12-16T04:58:50.145Z,20.23
2016-12-16T04:59:59.138Z,20.11
2016-12-16T05:01:07.827Z,20.1
2016-12-16T05:02:16.499Z,20.14
2016-12-16T05:03:25.802Z,20.21
2016-12-16T05:04:34.822Z,20.13
2016-12-16T05:05:43.806Z,20.23
2016-12-16T05:06:52.796Z,20.21
2016-12-16T05:08:01.786Z,20.2
2016-12-16T05:09:11.065Z,20.1
2016-12-16T05:10:20.121Z,20.2
2016-12-16T05:11:29.113Z,20.1
2016-12-16T05:12:37.792Z,20.16
2016-12-16T05:13:47.397Z,20.08
2016-12-16T05:14:56.384Z,20.06
2016-12-16T05:16:05.063Z,20.1
2016-12-16T05:17:14.087Z,20.18
2016-12-16T05:18:23.692Z,20.1
2016-12-16T05:19:32.999Z,20.2
2016-12-16T05:20:42.018Z,20.21
2016-12-16T05:21:50.999Z,20.1
2016-12-16T05:22:59.990Z,20.11
2016-12-16T05:24:08.987Z,20.08
2016-12-16T05:25:18.275Z,20.11
2016-12-16T05:26:27.044Z,20.21
2016-12-16T05:27:36.402Z,20.11
2016-12-16T05:28:45.115Z,20.13
2016-12-16T05:29:54.742Z,20.1
2016-12-16T05:31:03.822Z,20.16
2016-12-16T05:32:12.516Z,20.13
2016-12-16T05:33:21.304Z,20.16
2016-12-16T05:34:30.018Z,20.13
2016-12-16T05:35:39.313Z,20.1
2016-12-16T05:36:48.615Z,20.1
2016-12-16T05:37:57.916Z,20.21
2016-12-16T05:39:06.600Z,20.18
2016-12-16T05:40:15.598Z,20.31
2016-12-16T05:41:24.578Z,20.31
2016-12-16T05:42:33.276Z,20.38
2016-12-16T05:43:41.956Z,20.41
2016-12-16T05:44:50.642Z,20.5
2016-12-16T05:45:59.331Z,20.48
2016-12-16T05:47:08.323Z,20.62
2016-12-16T05:48:17.000Z,20.7
2016-12-16T05:49:25.979Z,20.69
2016-12-16T05:50:34.969Z,20.8
2016-12-16T05:51:43.958Z,20.8
2016-12-16T05:52:53.575Z,20.88
2016-12-16T05:54:02.607Z,20.88
2016-12-16T05:55:11.303Z,21.01
2016-12-16T05:56:20.692Z,20.99
2016-12-16T05:57:29.993Z,21.01
2016-12-16T05:58:38.987Z,21.04
2016-12-16T05:59:48.577Z,21.16
2016-12-16T06:00:57.252Z,21.17
2016-12-16T06:02:06.335Z,21.25
2016-12-16T06:03:15.924Z,21.24
2016-12-16T06:04:24.924Z,21.34
2016-12-16T06:05:34.215Z,21.32
2016-12-16T06:06:43.237Z,21.34
2016-12-16T06:07:52.217Z,21.42
2016-12-16T06:09:01.196Z,21.37
2016-12-16T06:10:10.607Z,21.5
2016-12-16T06:11:19.897Z,21.58
2016-12-16T06:12:29.806Z,21.58
2016-12-16T06:13:38.961Z,21.64
2016-12-16T06:14:48.266Z,21.65
2016-12-16T06:15:57.242Z,21.74
2016-12-16T06:17:05.919Z,21.72
2016-12-16T06:18:14.902Z,21.8
2016-12-16T06:19:23.674Z,21.84
2016-12-16T06:20:32.349Z,21.86
2016-12-16T06:21:41.390Z,21.86
2016-12-16T06:22:50.749Z,21.82
2016-12-16T06:23:59.738Z,21.84
2016-12-16T06:25:08.874Z,21.96
2016-12-16T06:26:18.172Z,21.94
2016-12-16T06:27:27.766Z,22.06
2016-12-16T06:28:37.373Z,22.18
2016-12-16T06:29:46.063Z,22.2
2016-12-16T06:30:55.658Z,22.25
2016-12-16T06:32:04.340Z,22.31
2016-12-16T06:33:13.331Z,22.33
2016-12-16T06:34:22.619Z,22.28
2016-12-16T06:35:31.918Z,22.37
2016-12-16T06:36:41.046Z,22.42
2016-12-16T06:37:50.383Z,22.4
2016-12-16T06:38:59.677Z,22.46
2016-12-16T06:40:08.977Z,22.45
2016-12-16T06:41:17.658Z,22.57
2016-12-16T06:42:26.641Z,22.58
2016-12-16T06:43:35.631Z,22.61
2016-12-16T06:44:44.637Z,22.57
2016-12-16T06:45:53.936Z,22.61
2016-12-16T06:47:02.700Z,22.65
2016-12-16T06:48:11.506Z,22.61
2016-12-16T06:49:20.580Z,22.7
2016-12-16T06:50:29.655Z,22.75
2016-12-16T06:51:38.949Z,22.75
2016-12-16T06:52:47.671Z,22.9
2016-12-16T06:53:57.033Z,22.82
2016-12-16T06:55:05.779Z,22.83
2016-12-16T06:56:15.378Z,22.76
2016-12-16T06:57:24.977Z,22.85
2016-12-16T06:58:34.886Z,22.79
2016-12-16T06:59:44.022Z,22.83
2016-12-16T07:00:52.699Z,22.79
2016-12-16T07:02:02.002Z,22.8
2016-12-16T07:03:10.671Z,22.79
2016-12-16T07:04:19.663Z,22.83
2016-12-16T07:05:29.139Z,22.8
2016-12-16T07:06:38.127Z,22.72
2016-12-16T07:07:47.120Z,22.75
2016-12-16T07:08:55.811Z,22.7
2016-12-16T07:10:04.505Z,22.72
2016-12-16T07:11:13.801Z,22.7
2016-12-16T07:12:23.436Z,22.7
2016-12-16T07:13:32.114Z,22.7
2016-12-16T07:14:40.801Z,22.57
2016-12-16T07:15:49.496Z,22.62
2016-12-16T07:16:58.893Z,22.6
2016-12-16T07:18:07.886Z,22.58
2016-12-16T07:19:17.494Z,22.52
2016-12-16T07:20:26.478Z,22.55
2016-12-16T07:21:35.779Z,22.52
2016-12-16T07:22:44.931Z,22.51
2016-12-16T07:23:54.248Z,22.49
2016-12-16T07:25:03.226Z,22.42
2016-12-16T07:26:12.236Z,22.43
2016-12-16T07:27:21.234Z,22.45
2016-12-16T07:28:30.539Z,22.35
2016-12-16T07:29:40.464Z,22.37
2016-12-16T07:30:49.777Z,22.25
2016-12-16T07:31:58.771Z,22.33
2016-12-16T07:33:08.092Z,22.27
2016-12-16T07:34:17.096Z,22.25
2016-12-16T07:35:26.122Z,22.18
2016-12-16T07:36:35.105Z,22.25
2016-12-16T07:37:43.810Z,22.27
2016-12-16T07:38:52.807Z,22.18
2016-12-16T07:40:01.497Z,22.06
2016-12-16T07:41:10.184Z,22.06
2016-12-16T07:42:18.873Z,22.1
2016-12-16T07:43:28.168Z,22.07
2016-12-16T07:44:37.165Z,21.91
2016-12-16T07:45:46.098Z,22.06
2016-12-16T07:46:55.408Z,22.02
2016-12-16T07:48:04.404Z,22
2016-12-16T07:49:13.413Z,21.86
2016-12-16T07:50:22.397Z,21.9
2016-12-16T07:51:31.489Z,21.88
2016-12-16T07:52:40.179Z,21.91
2016-12-16T07:53:49.175Z,21.83
2016-12-16T07:54:59.085Z,21.88
2016-12-16T07:56:08.385Z,21.83
2016-12-16T07:57:17.394Z,21.84
2016-12-16T07:58:26.075Z,21.74
2016-12-16T07:59:35.373Z,21.75
2016-12-16T08:00:44.664Z,21.69
2016-12-16T08:01:53.652Z,21.74
2016-12-16T08:03:02.650Z,21.79
2016-12-16T08:04:11.333Z,21.69
2016-12-16T08:05:20.632Z,21.64
2016-12-16T08:06:29.663Z,21.69
2016-12-16T08:07:38.652Z,21.59
2016-12-16T08:08:47.958Z,21.71
2016-12-16T08:09:56.954Z,21.61
2016-12-16T08:11:05.973Z,21.59
2016-12-16T08:12:14.970Z,21.5
2016-12-16T08:13:24.273Z,21.56
2016-12-16T08:14:33.272Z,21.53
2016-12-16T08:15:42.574Z,21.54
2016-12-16T08:16:51.268Z,21.46
2016-12-16T08:18:00.272Z,21.58
2016-12-16T08:19:09.582Z,21.49
2016-12-16T08:20:18.368Z,21.46
2016-12-16T08:21:27.668Z,21.46
2016-12-16T08:22:36.987Z,21.43
2016-12-16T08:23:45.712Z,21.42
2016-12-16T08:24:55.019Z,21.42
2016-12-16T08:26:04.428Z,21.4
2016-12-16T08:27:13.427Z,21.38
2016-12-16T08:28:23.027Z,21.34
2016-12-16T08:29:31.739Z,21.34
2016-12-16T08:30:40.443Z,21.4
2016-12-16T08:31:49.585Z,21.35
2016-12-16T08:32:59.201Z,21.4
2016-12-16T08:34:08.190Z,21.42
2016-12-16T08:35:17.185Z,21.34
2016-12-16T08:36:26.172Z,21.32
2016-12-16T08:37:35.260Z,21.31
2016-12-16T08:38:43.951Z,21.31
2016-12-16T08:39:52.644Z,21.27
2016-12-16T08:41:01.345Z,21.24
2016-12-16T08:42:10.650Z,21.22
2016-12-16T08:43:19.987Z,21.31
2016-12-16T08:44:28.989Z,21.31
2016-12-16T08:45:37.734Z,21.22
2016-12-16T08:46:46.430Z,21.29
2016-12-16T08:47:55.729Z,21.27
2016-12-16T08:49:05.485Z,21.24
2016-12-16T08:50:14.178Z,21.21
2016-12-16T08:51:22.858Z,21.24
2016-12-16T08:52:32.165Z,21.19
2016-12-16T08:53:41.168Z,21.17
2016-12-16T08:54:50.613Z,21.22
2016-12-16T08:55:59.923Z,21.22
2016-12-16T08:57:08.628Z,21.24
2016-12-16T08:58:17.625Z,21.14
2016-12-16T08:59:26.320Z,21.16
2016-12-16T09:00:35.173Z,21.16
2016-12-16T09:01:43.861Z,21.19
2016-12-16T09:02:52.555Z,21.19
2016-12-16T09:04:01.550Z,21.16
2016-12-16T09:05:10.863Z,21.16
2016-12-16T09:06:19.933Z,21.16
2016-12-16T09:07:29.240Z,21.17
2016-12-16T09:08:38.563Z,21.12
2016-12-16T09:09:48.199Z,21.14
2016-12-16T09:10:57.494Z,21.14
2016-12-16T09:12:06.604Z,21.13
2016-12-16T09:13:15.621Z,21.14
2016-12-16T09:14:24.620Z,21.17
2016-12-16T09:15:33.318Z,21.16
2016-12-16T09:16:42.007Z,21.13
2016-12-16T09:17:51.107Z,21.12
2016-12-16T09:19:00.109Z,21.13
2016-12-16T09:20:09.111Z,21.13
2016-12-16T09:21:18.123Z,21.13
2016-12-16T09:22:26.818Z,21.16
2016-12-16T09:23:35.802Z,21.1
2016-12-16T09:24:44.480Z,21.09
2016-12-16T09:25:53.176Z,21.14
2016-12-16T09:27:02.814Z,21.13
2016-12-16T09:28:11.514Z,21.13
2016-12-16T09:29:20.531Z,21.16
2016-12-16T09:30:29.537Z,21.09
2016-12-16T09:31:38.840Z,21.1
2016-12-16T09:32:48.147Z,21.07
2016-12-16T09:33:56.857Z,21.13
2016-12-16T09:35:06.460Z,21.13
2016-12-16T09:36:15.777Z,21.1
2016-12-16T09:37:24.478Z,21.16
2016-12-16T09:38:33.224Z,21.09
2016-12-16T09:39:42.524Z,21.13
2016-12-16T09:40:51.225Z,21.04
2016-12-16T09:42:00.561Z,21.13
2016-12-16T09:43:10.165Z,21.1
2016-12-16T09:44:19.158Z,21.14
2016-12-16T09:45:28.155Z,21.07
2016-12-16T09:46:37.613Z,21.14
2016-12-16T09:47:47.529Z,21.1
2016-12-16T09:48:56.520Z,21.13
2016-12-16T09:50:05.849Z,21.14
2016-12-16T09:51:14.540Z,21.13
2016-12-16T09:52:24.136Z,21.21
2016-12-16T09:53:33.138Z,21.06
2016-12-16T09:54:42.470Z,21.1
2016-12-16T09:55:51.474Z,21.16
2016-12-16T09:57:00.478Z,21.09
2016-12-16T09:58:09.790Z,21.13
2016-12-16T09:59:18.789Z,21.06
2016-12-16T10:00:27.791Z,21.07
2016-12-16T10:01:36.817Z,21.13
2016-12-16T10:02:46.203Z,20.99
2016-12-16T10:03:55.344Z,21.1
2016-12-16T10:05:04.675Z,21.04
2016-12-16T10:06:13.724Z,21.09
2016-12-16T10:07:22.722Z,21.13
2016-12-16T10:08:31.419Z,21.17
2016-12-16T10:09:40.171Z,21.16
2016-12-16T10:10:49.478Z,21.13
2016-12-16T10:11:58.176Z,21.06
2016-12-16T10:13:07.179Z,21.06
2016-12-16T10:14:16.186Z,21.12
2016-12-16T10:15:25.353Z,21.09
2016-12-16T10:16:34.095Z,21.04
2016-12-16T10:17:43.084Z,20.99
2016-12-16T10:18:53.015Z,21.13
2016-12-16T10:20:01.712Z,21.03
2016-12-16T10:21:10.725Z,21.09
2016-12-16T10:22:20.056Z,21.01
2016-12-16T10:23:29.668Z,21.01
2016-12-16T10:24:38.358Z,21.12
2016-12-16T10:25:47.039Z,21.07
2016-12-16T10:26:56.176Z,21.04
2016-12-16T10:28:04.856Z,20.99
2016-12-16T10:29:13.859Z,21.04
2016-12-16T10:30:22.527Z,21.03
2016-12-16T10:31:32.125Z,21.06
2016-12-16T10:32:40.991Z,21.07
2016-12-16T10:33:50.294Z,21.06
2016-12-16T10:34:59.302Z,21.06
2016-12-16T10:36:08.598Z,21.01
2016-12-16T10:37:17.923Z,21.1
2016-12-16T10:38:27.025Z,21.04
2016-12-16T10:39:36.369Z,21.01
2016-12-16T10:40:45.672Z,21.03
2016-12-16T10:41:54.658Z,21.06
2016-12-16T10:43:03.366Z,21.01
2016-12-16T10:44:12.433Z,21.06
2016-12-16T10:45:21.111Z,20.99
2016-12-16T10:46:30.421Z,21.01
2016-12-16T10:47:39.463Z,20.99
2016-12-16T10:48:48.147Z,21.01
2016-12-16T10:49:58.071Z,20.99
2016-12-16T10:51:06.772Z,20.94
2016-12-16T10:52:15.502Z,20.95
2016-12-16T10:53:24.500Z,20.99
2016-12-16T10:54:33.809Z,20.95
2016-12-16T10:55:42.488Z,20.99
2016-12-16T10:56:51.784Z,20.95
2016-12-16T10:58:00.787Z,20.98
2016-12-16T10:59:09.796Z,20.92
2016-12-16T11:00:18.484Z,20.94
2016-12-16T11:01:27.966Z,20.95
2016-12-16T11:02:36.680Z,20.94
2016-12-16T11:03:45.987Z,20.91
2016-12-16T11:04:55.295Z,20.92
2016-12-16T11:06:04.600Z,20.94
2016-12-16T11:07:13.598Z,20.98
2016-12-16T11:08:22.285Z,20.94
2016-12-16T11:09:30.994Z,20.92
2016-12-16T11:10:40.306Z,20.95
2016-12-16T11:11:49.326Z,20.87
2016-12-16T11:12:59.281Z,20.89
2016-12-16T11:14:08.295Z,20.84
2016-12-16T11:15:17.592Z,20.87
2016-12-16T11:16:26.903Z,20.85
2016-12-16T11:17:35.597Z,20.82
2016-12-16T11:18:44.584Z,20.89
2016-12-16T11:19:53.933Z,20.88
2016-12-16T11:21:02.939Z,20.87
2016-12-16T11:22:11.937Z,20.85
2016-12-16T11:23:21.253Z,20.91
2016-12-16T11:24:30.298Z,20.85
2016-12-16T11:25:39.306Z,20.88
2016-12-16T11:26:48.298Z,20.84
2016-12-16T11:27:56.996Z,20.82
2016-12-16T11:29:06.007Z,20.88
2016-12-16T11:30:15.119Z,20.87
2016-12-16T11:31:24.132Z,20.87
2016-12-16T11:32:33.439Z,20.84
2016-12-16T11:33:42.140Z,20.8
2016-12-16T11:34:51.185Z,20.74
2016-12-16T11:36:00.621Z,20.82
2016-12-16T11:37:09.631Z,20.8
2016-12-16T11:38:18.629Z,20.77
2016-12-16T11:39:27.632Z,20.85
2016-12-16T11:40:36.336Z,20.82
2016-12-16T11:41:45.654Z,20.87
2016-12-16T11:42:54.657Z,20.8
2016-12-16T11:44:03.651Z,20.8
2016-12-16T11:45:12.967Z,20.77
2016-12-16T11:46:21.660Z,20.8
2016-12-16T11:47:31.316Z,20.82
2016-12-16T11:48:40.303Z,20.84
2016-12-16T11:49:49.304Z,20.79
2016-12-16T11:50:58.304Z,20.79
2016-12-16T11:52:07.293Z,20.82
2016-12-16T11:53:16.445Z,20.76
2016-12-16T11:54:25.426Z,20.76
2016-12-16T11:55:34.418Z,20.76
2016-12-16T11:56:43.720Z,20.67
2016-12-16T11:57:52.430Z,20.69
2016-12-16T11:59:01.587Z,20.67
2016-12-16T12:00:10.892Z,20.72
2016-12-16T12:01:19.889Z,20.73
2016-12-16T12:02:28.584Z,20.72
2016-12-16T12:03:37.604Z,20.7
2016-12-16T12:04:46.960Z,20.72
2016-12-16T12:05:55.962Z,20.69
2016-12-16T12:07:05.012Z,20.67
2016-12-16T12:08:14.325Z,20.67
2016-12-16T12:09:23.021Z,20.7
2016-12-16T12:10:32.123Z,20.67
2016-12-16T12:11:41.120Z,20.64
2016-12-16T12:12:50.418Z,20.69
2016-12-16T12:13:59.456Z,20.7
2016-12-16T12:15:08.140Z,20.69
2016-12-16T12:16:17.259Z,20.67
2016-12-16T12:17:26.262Z,20.66
2016-12-16T12:18:35.576Z,20.64
2016-12-16T12:19:45.494Z,20.66
2016-12-16T12:20:54.494Z,20.69
2016-12-16T12:22:03.524Z,20.73
2016-12-16T12:23:12.516Z,20.69
2016-12-16T12:24:21.515Z,20.72
2016-12-16T12:25:30.809Z,20.69
2016-12-16T12:26:39.790Z,20.66
2016-12-16T12:27:48.483Z,20.7
2016-12-16T12:28:57.780Z,20.67
2016-12-16T12:30:06.806Z,20.67
2016-12-16T12:31:15.518Z,20.72
2016-12-16T12:32:24.539Z,20.7
2016-12-16T12:33:33.542Z,20.7
2016-12-16T12:34:43.137Z,20.67
2016-12-16T12:35:52.443Z,20.67
2016-12-16T12:37:01.131Z,20.66
2016-12-16T12:38:10.128Z,20.69
2016-12-16T12:39:19.211Z,20.69
2016-12-16T12:40:27.884Z,20.66
2016-12-16T12:41:36.568Z,20.67
2016-12-16T12:42:45.616Z,20.69
2016-12-16T12:43:54.307Z,20.64
2016-12-16T12:45:03.762Z,20.72
2016-12-16T12:46:13.362Z,20.67
2016-12-16T12:47:22.662Z,20.67
2016-12-16T12:48:31.373Z,20.66
2016-12-16T12:49:40.372Z,20.66
2016-12-16T12:50:49.845Z,20.66
2016-12-16T12:51:58.581Z,20.69
2016-12-16T12:53:07.278Z,20.67
2016-12-16T12:54:16.275Z,20.7
2016-12-16T12:55:25.273Z,20.72
2016-12-16T12:56:34.278Z,20.69
2016-12-16T12:57:43.274Z,20.72
2016-12-16T12:58:52.279Z,20.67
2016-12-16T13:00:01.275Z,20.7
2016-12-16T13:01:10.577Z,20.67
2016-12-16T13:02:20.004Z,20.64
2016-12-16T13:03:28.982Z,20.64
2016-12-16T13:04:38.000Z,20.7
2016-12-16T13:05:47.326Z,20.61
2016-12-16T13:06:56.033Z,20.62
2016-12-16T13:08:04.835Z,20.64
2016-12-16T13:09:13.865Z,20.58
2016-12-16T13:10:22.572Z,20.62
2016-12-16T13:11:31.580Z,20.59
2016-12-16T13:12:40.584Z,20.57
2016-12-16T13:13:49.588Z,20.64
2016-12-16T13:14:58.914Z,20.61
2016-12-16T13:16:07.603Z,20.61
2016-12-16T13:17:16.597Z,20.59
2016-12-16T13:18:25.304Z,20.62
2016-12-16T13:19:34.452Z,20.61
2016-12-16T13:20:43.758Z,20.59
2016-12-16T13:21:52.740Z,20.57
2016-12-16T13:23:01.729Z,20.58
2016-12-16T13:24:11.049Z,20.55
2016-12-16T13:25:20.448Z,20.57
2016-12-16T13:26:29.743Z,20.58
2016-12-16T13:27:38.435Z,20.59
2016-12-16T13:28:47.126Z,20.55
2016-12-16T13:29:56.427Z,20.54
2016-12-16T13:31:05.535Z,20.57
2016-12-16T13:32:14.842Z,20.48
2016-12-16T13:33:23.832Z,20.59
2016-12-16T13:34:33.154Z,20.54
2016-12-16T13:35:41.853Z,20.55
2016-12-16T13:36:50.851Z,20.55
2016-12-16T13:37:59.851Z,20.55
2016-12-16T13:39:08.848Z,20.47
2016-12-16T13:40:17.860Z,20.5
2016-12-16T13:41:26.552Z,20.51
2016-12-16T13:42:35.428Z,20.41
2016-12-16T13:43:44.428Z,20.43
2016-12-16T13:44:53.733Z,20.42
2016-12-16T13:46:02.438Z,20.55
2016-12-16T13:47:11.747Z,20.52
2016-12-16T13:48:20.853Z,20.5
2016-12-16T13:49:29.546Z,20.55
2016-12-16T13:50:38.541Z,20.48
2016-12-16T13:51:48.462Z,20.54
2016-12-16T13:52:58.389Z,20.48
2016-12-16T13:54:07.428Z,20.48
2016-12-16T13:55:16.727Z,20.52
2016-12-16T13:56:25.406Z,20.41
2016-12-16T13:57:34.404Z,20.51
2016-12-16T13:58:43.750Z,20.54
2016-12-16T13:59:52.751Z,20.48
2016-12-16T14:01:01.472Z,20.5
2016-12-16T14:02:10.485Z,20.43
2016-12-16T14:03:19.479Z,20.42
2016-12-16T14:04:29.080Z,20.52
2016-12-16T14:05:37.935Z,20.5
2016-12-16T14:06:46.635Z,20.47
2016-12-16T14:07:55.630Z,20.52
2016-12-16T14:09:04.615Z,20.51
2016-12-16T14:10:13.696Z,20.47
2016-12-16T14:11:22.682Z,20.5
2016-12-16T14:12:31.984Z,20.47
2016-12-16T14:13:41.591Z,20.38
2016-12-16T14:14:50.292Z,20.41
2016-12-16T14:15:59.588Z,20.42
2016-12-16T14:17:08.592Z,20.48
2016-12-16T14:18:17.602Z,20.42
2016-12-16T14:19:26.298Z,20.52
2016-12-16T14:20:35.316Z,20.42
2016-12-16T14:21:44.926Z,20.41
2016-12-16T14:22:54.074Z,20.41
2016-12-16T14:24:02.781Z,20.42
2016-12-16T14:25:11.479Z,20.43
2016-12-16T14:26:20.497Z,20.35
2016-12-16T14:27:29.477Z,20.41
2016-12-16T14:28:38.174Z,20.47
2016-12-16T14:29:47.797Z,20.42
2016-12-16T14:30:57.108Z,20.42
2016-12-16T14:32:06.100Z,20.39
2016-12-16T14:33:15.104Z,20.41
2016-12-16T14:34:23.886Z,20.38
2016-12-16T14:35:32.881Z,20.38
2016-12-16T14:36:41.565Z,20.41
2016-12-16T14:37:50.555Z,20.36
2016-12-16T14:38:59.840Z,20.42
2016-12-16T14:40:09.135Z,20.42
2016-12-16T14:41:17.816Z,20.41
2016-12-16T14:42:26.823Z,20.29
2016-12-16T14:43:35.815Z,20.41
2016-12-16T14:44:44.810Z,20.43
2016-12-16T14:45:53.642Z,20.42
2016-12-16T14:47:02.952Z,20.42
2016-12-16T14:48:12.256Z,20.39
2016-12-16T14:49:21.576Z,20.42
2016-12-16T14:50:30.886Z,20.36
2016-12-16T14:51:40.047Z,20.31
2016-12-16T14:55:34.002Z,20.42